sensor_id;sensor_type;location;lat;lon;timestamp;pressure;altitude;pressure_sealevel;temperature;humidity
24422;BME280;12600;53.326;-6.298;2022-10-13T00:01:39;101341.06;;;12.02;69.48
24422;BME280;12600;53.326;-6.298;2022-10-13T00:04:10;101338.63;;;12.00;69.64
24422;BME280;12600;53.326;-6.298;2022-10-13T00:06:40;101344.03;;;12.06;69.26
24422;BME280;12600;53.326;-6.298;2022-10-13T00:09:09;101333.97;;;12.01;69.36
24422;BME280;12600;53.326;-6.298;2022-10-13T00:11:38;101345.22;;;11.99;69.63
24422;BME280;12600;53.326;-6.298;2022-10-13T00:14:07;101317.00;;;11.85;69.87
24422;BME280;12600;53.326;-6.298;2022-10-13T00:16:36;101350.19;;;11.97;70.22
24422;BME280;12600;53.326;-6.298;2022-10-13T00:19:06;101336.28;;;11.94;70.18
24422;BME280;12600;53.326;-6.298;2022-10-13T00:21:42;101338.50;;;11.92;70.21
24422;BME280;12600;53.326;-6.298;2022-10-13T00:24:12;101335.56;;;11.88;70.34
24422;BME280;12600;53.326;-6.298;2022-10-13T00:26:41;101335.34;;;11.85;70.22
24422;BME280;12600;53.326;-6.298;2022-10-13T00:29:16;101332.69;;;11.80;70.13
24422;BME280;12600;53.326;-6.298;2022-10-13T00:31:47;101338.44;;;11.78;70.23
24422;BME280;12600;53.326;-6.298;2022-10-13T00:34:16;101329.22;;;11.74;70.42
24422;BME280;12600;53.326;-6.298;2022-10-13T00:36:46;101326.88;;;11.67;70.26
24422;BME280;12600;53.326;-6.298;2022-10-13T00:39:16;101316.47;;;11.51;70.52
24422;BME280;12600;53.326;-6.298;2022-10-13T00:41:45;101333.03;;;11.59;70.38
24422;BME280;12600;53.326;-6.298;2022-10-13T00:44:59;101332.81;;;11.56;70.70
24422;BME280;12600;53.326;-6.298;2022-10-13T00:47:34;101321.50;;;11.43;70.52
24422;BME280;12600;53.326;-6.298;2022-10-13T00:50:08;101323.94;;;11.45;70.21
24422;BME280;12600;53.326;-6.298;2022-10-13T00:52:41;101321.00;;;11.41;70.54
24422;BME280;12600;53.326;-6.298;2022-10-13T00:55:12;101331.66;;;11.43;70.59
24422;BME280;12600;53.326;-6.298;2022-10-13T00:57:46;101305.56;;;11.32;70.07
24422;BME280;12600;53.326;-6.298;2022-10-13T01:00:30;101314.59;;;11.32;70.25
24422;BME280;12600;53.326;-6.298;2022-10-13T01:03:00;101315.78;;;11.26;69.90
24422;BME280;12600;53.326;-6.298;2022-10-13T01:05:30;101317.69;;;11.26;70.25
24422;BME280;12600;53.326;-6.298;2022-10-13T01:08:01;101313.41;;;11.19;69.66
24422;BME280;12600;53.326;-6.298;2022-10-13T01:10:41;101313.88;;;11.08;70.28
24422;BME280;12600;53.326;-6.298;2022-10-13T01:13:20;101321.31;;;11.02;70.82
24422;BME280;12600;53.326;-6.298;2022-10-13T01:15:59;101323.09;;;10.93;70.74
24422;BME280;12600;53.326;-6.298;2022-10-13T01:18:38;101304.19;;;10.78;71.07
24422;BME280;12600;53.326;-6.298;2022-10-13T01:21:18;101319.41;;;10.84;71.41
24422;BME280;12600;53.326;-6.298;2022-10-13T01:24:27;101330.56;;;10.87;71.52
24422;BME280;12600;53.326;-6.298;2022-10-13T01:27:45;101340.69;;;10.87;71.39
24422;BME280;12600;53.326;-6.298;2022-10-13T01:30:20;101321.91;;;10.80;70.94
24422;BME280;12600;53.326;-6.298;2022-10-13T01:33:05;101329.44;;;10.88;71.23
24422;BME280;12600;53.326;-6.298;2022-10-13T01:35:48;101320.56;;;10.78;71.02
24422;BME280;12600;53.326;-6.298;2022-10-13T01:38:32;101322.78;;;10.76;70.82
24422;BME280;12600;53.326;-6.298;2022-10-13T01:41:11;101333.94;;;10.79;70.97
24422;BME280;12600;53.326;-6.298;2022-10-13T01:43:47;101328.53;;;10.74;71.11
24422;BME280;12600;53.326;-6.298;2022-10-13T01:46:22;101323.97;;;10.70;71.51
24422;BME280;12600;53.326;-6.298;2022-10-13T01:48:57;101317.53;;;10.60;71.67
24422;BME280;12600;53.326;-6.298;2022-10-13T01:51:29;101324.66;;;10.56;71.73
24422;BME280;12600;53.326;-6.298;2022-10-13T01:53:59;101334.44;;;10.62;71.46
24422;BME280;12600;53.326;-6.298;2022-10-13T01:56:28;101337.75;;;10.59;71.40
24422;BME280;12600;53.326;-6.298;2022-10-13T01:59:01;101334.78;;;10.56;71.34
24422;BME280;12600;53.326;-6.298;2022-10-13T02:01:50;101313.66;;;10.43;71.59
24422;BME280;12600;53.326;-6.298;2022-10-13T02:04:33;101324.81;;;10.46;71.67
24422;BME280;12600;53.326;-6.298;2022-10-13T02:07:10;101321.78;;;10.48;71.52
24422;BME280;12600;53.326;-6.298;2022-10-13T02:09:53;101322.59;;;10.48;71.64
24422;BME280;12600;53.326;-6.298;2022-10-13T02:12:29;101312.25;;;10.45;71.29
24422;BME280;12600;53.326;-6.298;2022-10-13T02:15:00;101316.81;;;10.50;70.86
24422;BME280;12600;53.326;-6.298;2022-10-13T02:17:35;101291.34;;;10.35;70.78
24422;BME280;12600;53.326;-6.298;2022-10-13T02:20:06;101304.63;;;10.42;70.68
24422;BME280;12600;53.326;-6.298;2022-10-13T02:22:41;101300.06;;;10.38;70.94
24422;BME280;12600;53.326;-6.298;2022-10-13T02:25:11;101289.78;;;10.29;71.03
24422;BME280;12600;53.326;-6.298;2022-10-13T02:27:41;101298.19;;;10.33;70.75
24422;BME280;12600;53.326;-6.298;2022-10-13T02:30:20;101278.09;;;10.24;70.84
24422;BME280;12600;53.326;-6.298;2022-10-13T02:32:51;101287.91;;;10.25;71.02
24422;BME280;12600;53.326;-6.298;2022-10-13T02:35:21;101274.94;;;10.12;71.36
24422;BME280;12600;53.326;-6.298;2022-10-13T02:37:50;101249.94;;;9.99;71.24
24422;BME280;12600;53.326;-6.298;2022-10-13T02:40:20;101280.91;;;10.14;71.15
24422;BME280;12600;53.326;-6.298;2022-10-13T02:42:49;101270.63;;;10.05;71.18
24422;BME280;12600;53.326;-6.298;2022-10-13T02:45:18;101293.28;;;10.06;71.40
24422;BME280;12600;53.326;-6.298;2022-10-13T02:47:51;101269.88;;;10.00;71.71
24422;BME280;12600;53.326;-6.298;2022-10-13T02:50:20;101283.22;;;10.01;71.68
24422;BME280;12600;53.326;-6.298;2022-10-13T02:52:50;101278.88;;;10.00;71.44
24422;BME280;12600;53.326;-6.298;2022-10-13T02:55:19;101257.66;;;9.92;71.33
24422;BME280;12600;53.326;-6.298;2022-10-13T02:57:55;101266.72;;;9.88;71.53
24422;BME280;12600;53.326;-6.298;2022-10-13T03:00:25;101256.44;;;9.79;71.72
24422;BME280;12600;53.326;-6.298;2022-10-13T03:02:55;101253.72;;;9.79;71.79
24422;BME280;12600;53.326;-6.298;2022-10-13T03:05:24;101269.56;;;9.77;71.94
24422;BME280;12600;53.326;-6.298;2022-10-13T03:07:54;101266.56;;;9.79;72.08
24422;BME280;12600;53.326;-6.298;2022-10-13T03:10:23;101228.44;;;9.69;72.14
24422;BME280;12600;53.326;-6.298;2022-10-13T03:12:54;101232.28;;;9.68;71.93
24422;BME280;12600;53.326;-6.298;2022-10-13T03:15:24;101230.00;;;9.75;71.88
24422;BME280;12600;53.326;-6.298;2022-10-13T03:17:56;101239.59;;;9.72;71.96
24422;BME280;12600;53.326;-6.298;2022-10-13T03:20:25;101235.78;;;9.73;71.68
24422;BME280;12600;53.326;-6.298;2022-10-13T03:22:55;101248.59;;;9.73;71.33
24422;BME280;12600;53.326;-6.298;2022-10-13T03:25:24;101232.13;;;9.54;71.81
24422;BME280;12600;53.326;-6.298;2022-10-13T03:27:54;101254.22;;;9.58;71.84
24422;BME280;12600;53.326;-6.298;2022-10-13T03:30:24;101255.84;;;9.59;72.08
24422;BME280;12600;53.326;-6.298;2022-10-13T03:32:53;101266.41;;;9.65;72.03
24422;BME280;12600;53.326;-6.298;2022-10-13T03:35:24;101259.63;;;9.63;71.96
24422;BME280;12600;53.326;-6.298;2022-10-13T03:37:53;101246.66;;;9.49;71.81
24422;BME280;12600;53.326;-6.298;2022-10-13T03:40:24;101248.28;;;9.50;72.14
24422;BME280;12600;53.326;-6.298;2022-10-13T03:42:53;101260.00;;;9.51;72.24
24422;BME280;12600;53.326;-6.298;2022-10-13T03:45:23;101282.31;;;9.58;72.21
24422;BME280;12600;53.326;-6.298;2022-10-13T03:47:53;101292.97;;;9.55;72.09
24422;BME280;12600;53.326;-6.298;2022-10-13T03:50:23;101290.00;;;9.51;72.24
24422;BME280;12600;53.326;-6.298;2022-10-13T03:52:53;101281.00;;;9.50;72.30
24422;BME280;12600;53.326;-6.298;2022-10-13T03:55:23;101283.22;;;9.48;71.96
24422;BME280;12600;53.326;-6.298;2022-10-13T03:57:52;101247.06;;;9.33;72.39
24422;BME280;12600;53.326;-6.298;2022-10-13T04:00:21;101257.06;;;9.42;72.27
24422;BME280;12600;53.326;-6.298;2022-10-13T04:02:50;101247.25;;;9.41;72.14
24422;BME280;12600;53.326;-6.298;2022-10-13T04:05:19;101238.81;;;9.38;72.59
24422;BME280;12600;53.326;-6.298;2022-10-13T04:07:50;101241.28;;;9.39;72.34
24422;BME280;12600;53.326;-6.298;2022-10-13T04:10:21;101218.66;;;9.39;72.46
24422;BME280;12600;53.326;-6.298;2022-10-13T04:12:50;101205.34;;;9.32;72.31
24422;BME280;12600;53.326;-6.298;2022-10-13T04:15:20;101199.63;;;9.34;72.26
24422;BME280;12600;53.326;-6.298;2022-10-13T04:17:49;101214.06;;;9.34;71.88
24422;BME280;12600;53.326;-6.298;2022-10-13T04:20:18;101202.38;;;9.29;72.37
24422;BME280;12600;53.326;-6.298;2022-10-13T04:22:49;101207.59;;;9.25;72.36
24422;BME280;12600;53.326;-6.298;2022-10-13T04:25:18;101206.53;;;9.21;72.28
24422;BME280;12600;53.326;-6.298;2022-10-13T04:27:47;101192.38;;;9.19;72.99
24422;BME280;12600;53.326;-6.298;2022-10-13T04:30:17;101165.06;;;8.95;73.05
24422;BME280;12600;53.326;-6.298;2022-10-13T04:32:46;101201.69;;;9.13;73.18
24422;BME280;12600;53.326;-6.298;2022-10-13T04:35:16;101179.75;;;8.99;72.68
24422;BME280;12600;53.326;-6.298;2022-10-13T04:37:45;101165.69;;;8.82;73.39
24422;BME280;12600;53.326;-6.298;2022-10-13T04:40:16;101179.06;;;8.83;73.44
24422;BME280;12600;53.326;-6.298;2022-10-13T04:42:45;101208.97;;;8.93;73.47
24422;BME280;12600;53.326;-6.298;2022-10-13T04:45:15;101205.72;;;8.91;73.93
24422;BME280;12600;53.326;-6.298;2022-10-13T04:47:49;101207.06;;;8.89;73.65
24422;BME280;12600;53.326;-6.298;2022-10-13T04:50:21;101207.94;;;8.84;73.79
24422;BME280;12600;53.326;-6.298;2022-10-13T04:52:58;101196.78;;;8.81;73.92
24422;BME280;12600;53.326;-6.298;2022-10-13T04:55:28;101198.47;;;8.77;74.20
24422;BME280;12600;53.326;-6.298;2022-10-13T04:57:58;101196.03;;;8.75;74.13
24422;BME280;12600;53.326;-6.298;2022-10-13T05:00:27;101203.94;;;8.72;74.20
24422;BME280;12600;53.326;-6.298;2022-10-13T05:02:56;101197.66;;;8.71;74.51
24422;BME280;12600;53.326;-6.298;2022-10-13T05:05:25;101189.00;;;8.64;74.27
24422;BME280;12600;53.326;-6.298;2022-10-13T05:07:54;101195.53;;;8.68;74.24
24422;BME280;12600;53.326;-6.298;2022-10-13T05:10:23;101197.66;;;8.71;73.86
24422;BME280;12600;53.326;-6.298;2022-10-13T05:12:57;101202.88;;;8.67;73.99
24422;BME280;12600;53.326;-6.298;2022-10-13T05:15:26;101189.56;;;8.61;73.57
24422;BME280;12600;53.326;-6.298;2022-10-13T05:17:56;101211.38;;;8.61;73.20
24422;BME280;12600;53.326;-6.298;2022-10-13T05:20:26;101208.38;;;8.57;73.85
24422;BME280;12600;53.326;-6.298;2022-10-13T05:22:56;101199.38;;;8.62;74.27
24422;BME280;12600;53.326;-6.298;2022-10-13T05:25:25;101192.28;;;8.61;74.43
24422;BME280;12600;53.326;-6.298;2022-10-13T05:28:03;101181.19;;;8.52;73.88
24422;BME280;12600;53.326;-6.298;2022-10-13T05:30:32;101167.06;;;8.45;74.49
24422;BME280;12600;53.326;-6.298;2022-10-13T05:33:02;101179.31;;;8.48;73.70
24422;BME280;12600;53.326;-6.298;2022-10-13T05:35:31;101171.13;;;8.48;73.67
24422;BME280;12600;53.326;-6.298;2022-10-13T05:38:00;101175.47;;;8.54;74.43
24422;BME280;12600;53.326;-6.298;2022-10-13T05:40:30;101187.69;;;8.56;74.20
24422;BME280;12600;53.326;-6.298;2022-10-13T05:43:03;101174.13;;;8.51;74.22
24422;BME280;12600;53.326;-6.298;2022-10-13T05:45:32;101189.91;;;8.49;73.73
24422;BME280;12600;53.326;-6.298;2022-10-13T05:48:01;101184.22;;;8.46;74.68
24422;BME280;12600;53.326;-6.298;2022-10-13T05:50:30;101185.59;;;8.43;75.08
24422;BME280;12600;53.326;-6.298;2022-10-13T05:53:00;101181.53;;;8.40;74.69
24422;BME280;12600;53.326;-6.298;2022-10-13T05:55:29;101184.78;;;8.43;74.94
24422;BME280;12600;53.326;-6.298;2022-10-13T05:57:58;101184.78;;;8.43;74.55
24422;BME280;12600;53.326;-6.298;2022-10-13T06:00:30;101163.84;;;8.33;74.48
24422;BME280;12600;53.326;-6.298;2022-10-13T06:03:06;101151.63;;;8.25;74.95
24422;BME280;12600;53.326;-6.298;2022-10-13T06:05:42;101155.16;;;8.31;75.17
24422;BME280;12600;53.326;-6.298;2022-10-13T06:08:14;101127.94;;;8.26;74.62
24422;BME280;12600;53.326;-6.298;2022-10-13T06:10:46;101098.88;;;8.16;74.19
24422;BME280;12600;53.326;-6.298;2022-10-13T06:13:16;101150.44;;;8.47;73.77
24422;BME280;12600;53.326;-6.298;2022-10-13T06:15:46;101139.03;;;8.45;74.38
24422;BME280;12600;53.326;-6.298;2022-10-13T06:18:16;101124.91;;;8.37;74.45
24422;BME280;12600;53.326;-6.298;2022-10-13T06:20:45;101130.84;;;8.45;74.53
24422;BME280;12600;53.326;-6.298;2022-10-13T06:23:15;101128.38;;;8.48;74.16
24422;BME280;12600;53.326;-6.298;2022-10-13T06:25:47;101114.00;;;8.43;74.22
24422;BME280;12600;53.326;-6.298;2022-10-13T06:28:17;101103.94;;;8.33;73.95
24422;BME280;12600;53.326;-6.298;2022-10-13T06:30:49;101116.75;;;8.37;74.42
24422;BME280;12600;53.326;-6.298;2022-10-13T06:33:23;101122.19;;;8.37;74.46
24422;BME280;12600;53.326;-6.298;2022-10-13T06:35:52;101123.53;;;8.40;73.99
24422;BME280;12600;53.326;-6.298;2022-10-13T06:38:23;101122.19;;;8.37;74.63
24422;BME280;12600;53.326;-6.298;2022-10-13T06:40:54;101107.81;;;8.27;74.28
24422;BME280;12600;53.326;-6.298;2022-10-13T06:43:32;101105.31;;;8.30;75.05
24422;BME280;12600;53.326;-6.298;2022-10-13T06:46:11;101115.13;;;8.36;74.52
24422;BME280;12600;53.326;-6.298;2022-10-13T06:48:41;101103.44;;;8.26;74.74
24422;BME280;12600;53.326;-6.298;2022-10-13T06:51:11;101089.72;;;8.02;75.05
24422;BME280;12600;53.326;-6.298;2022-10-13T06:53:40;101153.25;;;8.36;75.74
24422;BME280;12600;53.326;-6.298;2022-10-13T06:56:09;101153.78;;;8.38;75.81
24422;BME280;12600;53.326;-6.298;2022-10-13T06:58:39;101139.06;;;8.34;75.88
24422;BME280;12600;53.326;-6.298;2022-10-13T07:01:12;101146.91;;;8.46;75.78
24422;BME280;12600;53.326;-6.298;2022-10-13T07:03:42;101142.56;;;8.45;75.44
24422;BME280;12600;53.326;-6.298;2022-10-13T07:06:11;101149.63;;;8.51;75.86
24422;BME280;12600;53.326;-6.298;2022-10-13T07:08:40;101142.28;;;8.47;75.14
24422;BME280;12600;53.326;-6.298;2022-10-13T07:11:11;101134.09;;;8.52;75.27
24422;BME280;12600;53.326;-6.298;2022-10-13T07:13:48;101147.31;;;8.63;75.08
24422;BME280;12600;53.326;-6.298;2022-10-13T07:16:18;101142.75;;;8.59;75.18
24422;BME280;12600;53.326;-6.298;2022-10-13T07:18:48;101162.84;;;8.63;75.27
24422;BME280;12600;53.326;-6.298;2022-10-13T07:21:17;101164.47;;;8.69;75.57
24422;BME280;12600;53.326;-6.298;2022-10-13T07:23:47;101159.78;;;8.75;75.42
24422;BME280;12600;53.326;-6.298;2022-10-13T07:26:16;101168.50;;;8.77;75.56
24422;BME280;12600;53.326;-6.298;2022-10-13T07:28:45;101171.72;;;8.79;75.37
24422;BME280;12600;53.326;-6.298;2022-10-13T07:31:18;101176.91;;;8.80;75.44
24422;BME280;12600;53.326;-6.298;2022-10-13T07:33:49;101162.22;;;8.76;75.79
24422;BME280;12600;53.326;-6.298;2022-10-13T07:36:18;101155.06;;;8.85;75.95
24422;BME280;12600;53.326;-6.298;2022-10-13T07:38:48;101138.72;;;8.85;75.57
24422;BME280;12600;53.326;-6.298;2022-10-13T07:41:17;101148.41;;;8.96;75.40
24422;BME280;12600;53.326;-6.298;2022-10-13T07:43:47;101141.13;;;8.92;75.45
24422;BME280;12600;53.326;-6.298;2022-10-13T07:46:17;101155.41;;;9.08;75.80
24422;BME280;12600;53.326;-6.298;2022-10-13T07:48:47;101153.50;;;9.08;75.96
24422;BME280;12600;53.326;-6.298;2022-10-13T07:51:16;101170.06;;;9.17;75.74
24422;BME280;12600;53.326;-6.298;2022-10-13T07:53:45;101164.28;;;9.23;75.84
24422;BME280;12600;53.326;-6.298;2022-10-13T07:56:16;101132.44;;;9.14;76.20
24422;BME280;12600;53.326;-6.298;2022-10-13T07:58:46;101149.19;;;9.31;76.18
24422;BME280;12600;53.326;-6.298;2022-10-13T08:01:18;101150.19;;;9.40;75.98
24422;BME280;12600;53.326;-6.298;2022-10-13T08:03:47;101156.13;;;9.47;75.81
24422;BME280;12600;53.326;-6.298;2022-10-13T08:06:20;101156.03;;;9.52;76.24
24422;BME280;12600;53.326;-6.298;2022-10-13T08:08:53;101144.03;;;9.53;76.19
24422;BME280;12600;53.326;-6.298;2022-10-13T08:11:25;101138.00;;;9.57;76.65
24422;BME280;12600;53.326;-6.298;2022-10-13T08:13:54;101132.25;;;9.58;76.92
24422;BME280;12600;53.326;-6.298;2022-10-13T08:16:29;101144.44;;;9.66;76.93
24422;BME280;12600;53.326;-6.298;2022-10-13T08:18:59;101152.47;;;9.81;77.24
24422;BME280;12600;53.326;-6.298;2022-10-13T08:21:28;101149.59;;;9.91;77.45
24422;BME280;12600;53.326;-6.298;2022-10-13T08:24:18;101158.53;;;9.97;77.60
24422;BME280;12600;53.326;-6.298;2022-10-13T08:26:49;101153.09;;;10.16;78.16
24422;BME280;12600;53.326;-6.298;2022-10-13T08:29:18;101151.75;;;10.37;78.99
24422;BME280;12600;53.326;-6.298;2022-10-13T08:31:52;101164.78;;;10.78;79.68
24422;BME280;12600;53.326;-6.298;2022-10-13T08:34:22;101165.84;;;11.28;81.33
24422;BME280;12600;53.326;-6.298;2022-10-13T08:36:52;101171.56;;;11.87;81.67
24422;BME280;12600;53.326;-6.298;2022-10-13T08:39:24;101154.25;;;12.41;82.59
24422;BME280;12600;53.326;-6.298;2022-10-13T08:41:54;101161.50;;;13.04;81.67
24422;BME280;12600;53.326;-6.298;2022-10-13T08:44:29;101145.13;;;13.44;80.17
24422;BME280;12600;53.326;-6.298;2022-10-13T08:47:40;101175.91;;;14.20;80.41
24422;BME280;12600;53.326;-6.298;2022-10-13T08:50:17;101160.09;;;14.78;79.94
24422;BME280;12600;53.326;-6.298;2022-10-13T08:52:49;101169.50;;;15.50;78.34
24422;BME280;12600;53.326;-6.298;2022-10-13T08:55:26;101162.25;;;16.13;80.31
24422;BME280;12600;53.326;-6.298;2022-10-13T08:57:58;101143.34;;;16.65;80.21
24422;BME280;12600;53.326;-6.298;2022-10-13T09:00:29;101160.00;;;17.23;78.61
24422;BME280;12600;53.326;-6.298;2022-10-13T09:03:18;101151.66;;;17.56;73.78
24422;BME280;12600;53.326;-6.298;2022-10-13T09:06:01;101136.88;;;17.73;73.26
24422;BME280;12600;53.326;-6.298;2022-10-13T09:08:40;101151.13;;;17.87;73.53
24422;BME280;12600;53.326;-6.298;2022-10-13T09:11:12;101151.69;;;17.80;72.61
24422;BME280;12600;53.326;-6.298;2022-10-13T09:13:41;101152.72;;;17.63;71.82
24422;BME280;12600;53.326;-6.298;2022-10-13T09:16:10;101142.13;;;17.41;70.99
24422;BME280;12600;53.326;-6.298;2022-10-13T09:18:41;101140.13;;;17.17;70.19
24422;BME280;12600;53.326;-6.298;2022-10-13T09:21:21;101133.59;;;16.89;68.31
24422;BME280;12600;53.326;-6.298;2022-10-13T09:23:52;101112.06;;;16.61;67.97
24422;BME280;12600;53.326;-6.298;2022-10-13T09:26:23;101134.16;;;16.61;66.95
24422;BME280;12600;53.326;-6.298;2022-10-13T09:28:53;101138.72;;;16.57;65.84
24422;BME280;12600;53.326;-6.298;2022-10-13T09:31:25;101138.72;;;16.57;65.21
24422;BME280;12600;53.326;-6.298;2022-10-13T09:34:02;101124.53;;;16.46;62.99
24422;BME280;12600;53.326;-6.298;2022-10-13T09:36:37;101104.41;;;16.25;62.39
24422;BME280;12600;53.326;-6.298;2022-10-13T09:39:11;101130.25;;;16.41;62.27
24422;BME280;12600;53.326;-6.298;2022-10-13T09:41:44;101127.03;;;16.39;62.29
24422;BME280;12600;53.326;-6.298;2022-10-13T09:44:15;101106.19;;;16.30;62.71
24422;BME280;12600;53.326;-6.298;2022-10-13T09:46:49;101110.91;;;16.29;62.07
24422;BME280;12600;53.326;-6.298;2022-10-13T09:49:32;101120.44;;;16.32;62.12
24422;BME280;12600;53.326;-6.298;2022-10-13T09:52:14;101101.84;;;16.20;61.60
24422;BME280;12600;53.326;-6.298;2022-10-13T09:54:46;101099.78;;;16.17;61.93
24422;BME280;12600;53.326;-6.298;2022-10-13T09:57:32;101102.41;;;16.13;61.60
24422;BME280;12600;53.326;-6.298;2022-10-13T10:00:11;101090.78;;;16.08;61.57
24422;BME280;12600;53.326;-6.298;2022-10-13T10:02:47;101081.41;;;16.00;62.02
24422;BME280;12600;53.326;-6.298;2022-10-13T10:05:31;101083.56;;;15.94;61.58
24422;BME280;12600;53.326;-6.298;2022-10-13T10:08:12;101086.25;;;16.03;61.43
24422;BME280;12600;53.326;-6.298;2022-10-13T10:10:44;101082.50;;;16.08;61.67
24422;BME280;12600;53.326;-6.298;2022-10-13T10:13:14;101065.53;;;16.39;62.79
24422;BME280;12600;53.326;-6.298;2022-10-13T10:15:52;101069.13;;;17.18;64.03
24422;BME280;12600;53.326;-6.298;2022-10-13T10:18:31;101074.53;;;18.00;59.45
24422;BME280;12600;53.326;-6.298;2022-10-13T10:21:11;101059.19;;;18.70;59.88
24422;BME280;12600;53.326;-6.298;2022-10-13T10:23:46;101065.00;;;18.81;58.20
24422;BME280;12600;53.326;-6.298;2022-10-13T10:26:21;101048.84;;;18.55;54.37
24422;BME280;12600;53.326;-6.298;2022-10-13T10:29:18;101050.38;;;18.25;53.58
24422;BME280;12600;53.326;-6.298;2022-10-13T10:32:16;101048.44;;;17.73;53.66
24422;BME280;12600;53.326;-6.298;2022-10-13T10:34:53;101028.03;;;17.65;54.10
24422;BME280;12600;53.326;-6.298;2022-10-13T10:37:44;101024.69;;;17.47;54.23
24422;BME280;12600;53.326;-6.298;2022-10-13T10:40:31;101026.66;;;17.47;55.50
24422;BME280;12600;53.326;-6.298;2022-10-13T10:43:45;101027.09;;;17.85;55.07
24422;BME280;12600;53.326;-6.298;2022-10-13T10:46:21;101019.66;;;18.70;52.98
24422;BME280;12600;53.326;-6.298;2022-10-13T10:48:54;101018.28;;;19.59;53.34
24422;BME280;12600;53.326;-6.298;2022-10-13T10:51:29;101019.94;;;20.18;49.00
24422;BME280;12600;53.326;-6.298;2022-10-13T10:54:20;101024.50;;;20.68;46.73
24422;BME280;12600;53.326;-6.298;2022-10-13T10:56:53;101020.53;;;21.11;46.33
24422;BME280;12600;53.326;-6.298;2022-10-13T10:59:42;101019.34;;;21.35;44.89
24422;BME280;12600;53.326;-6.298;2022-10-13T11:02:42;101017.91;;;21.45;45.62
24422;BME280;12600;53.326;-6.298;2022-10-13T11:05:14;101006.19;;;21.59;46.67
24422;BME280;12600;53.326;-6.298;2022-10-13T11:07:58;100996.31;;;21.35;44.93
24422;BME280;12600;53.326;-6.298;2022-10-13T11:10:29;100986.34;;;21.60;45.37
24422;BME280;12600;53.326;-6.298;2022-10-13T11:13:19;100993.00;;;21.82;44.69
24422;BME280;12600;53.326;-6.298;2022-10-13T11:15:49;100995.81;;;21.86;45.61
24422;BME280;12600;53.326;-6.298;2022-10-13T11:19:01;100996.03;;;21.43;45.38
24422;BME280;12600;53.326;-6.298;2022-10-13T11:22:13;100995.81;;;20.60;46.66
24422;BME280;12600;53.326;-6.298;2022-10-13T11:25:36;101008.47;;;20.19;47.50
24422;BME280;12600;53.326;-6.298;2022-10-13T11:28:46;101007.50;;;19.73;49.18
24422;BME280;12600;53.326;-6.298;2022-10-13T11:31:52;100991.88;;;19.65;49.59
24422;BME280;12600;53.326;-6.298;2022-10-13T11:34:30;100981.91;;;19.44;50.08
24422;BME280;12600;53.326;-6.298;2022-10-13T11:37:01;100992.81;;;19.37;50.62
24422;BME280;12600;53.326;-6.298;2022-10-13T11:40:03;100975.38;;;18.86;51.84
24422;BME280;12600;53.326;-6.298;2022-10-13T11:43:17;100991.97;;;18.70;53.13
24422;BME280;12600;53.326;-6.298;2022-10-13T11:46:25;100997.63;;;18.17;54.04
24422;BME280;12600;53.326;-6.298;2022-10-13T11:49:17;100983.72;;;18.02;54.71
24422;BME280;12600;53.326;-6.298;2022-10-13T11:52:10;100984.38;;;18.11;54.96
24422;BME280;12600;53.326;-6.298;2022-10-13T11:54:50;100971.16;;;18.32;54.91
24422;BME280;12600;53.326;-6.298;2022-10-13T11:57:24;100986.47;;;18.58;54.19
24422;BME280;12600;53.326;-6.298;2022-10-13T11:59:56;100980.59;;;18.75;54.19
24422;BME280;12600;53.326;-6.298;2022-10-13T12:02:47;101004.09;;;18.81;53.64
24422;BME280;12600;53.326;-6.298;2022-10-13T12:05:22;101000.41;;;18.61;53.08
24422;BME280;12600;53.326;-6.298;2022-10-13T12:07:56;101011.63;;;18.96;53.19
24422;BME280;12600;53.326;-6.298;2022-10-13T12:10:32;101008.66;;;19.72;52.02
24422;BME280;12600;53.326;-6.298;2022-10-13T12:13:06;100999.53;;;20.06;50.79
24422;BME280;12600;53.326;-6.298;2022-10-13T12:15:44;101031.41;;;20.16;49.72
24422;BME280;12600;53.326;-6.298;2022-10-13T12:18:23;101018.88;;;20.22;49.73
24422;BME280;12600;53.326;-6.298;2022-10-13T12:20:56;101005.56;;;20.31;48.83
24422;BME280;12600;53.326;-6.298;2022-10-13T12:23:28;101002.72;;;20.47;48.43
24422;BME280;12600;53.326;-6.298;2022-10-13T12:25:58;101011.81;;;20.67;48.29
24422;BME280;12600;53.326;-6.298;2022-10-13T12:28:41;100998.84;;;20.75;47.73
24422;BME280;12600;53.326;-6.298;2022-10-13T12:31:20;100993.00;;;21.03;48.05
24422;BME280;12600;53.326;-6.298;2022-10-13T12:33:55;100972.94;;;21.16;46.98
24422;BME280;12600;53.326;-6.298;2022-10-13T12:36:27;100982.47;;;21.15;47.36
24422;BME280;12600;53.326;-6.298;2022-10-13T12:39:02;100967.91;;;20.99;47.82
24422;BME280;12600;53.326;-6.298;2022-10-13T12:41:34;100953.25;;;20.76;47.83
24422;BME280;12600;53.326;-6.298;2022-10-13T12:44:06;100959.13;;;21.20;47.63
24422;BME280;12600;53.326;-6.298;2022-10-13T12:46:42;100915.75;;;21.38;47.08
24422;BME280;12600;53.326;-6.298;2022-10-13T12:49:15;100942.38;;;21.16;46.57
24422;BME280;12600;53.326;-6.298;2022-10-13T12:51:46;100947.41;;;20.81;47.15
24422;BME280;12600;53.326;-6.298;2022-10-13T12:54:21;100919.06;;;20.72;47.98
24422;BME280;12600;53.326;-6.298;2022-10-13T12:56:56;100911.69;;;21.06;47.72
24422;BME280;12600;53.326;-6.298;2022-10-13T12:59:28;100928.34;;;21.32;46.82
24422;BME280;12600;53.326;-6.298;2022-10-13T13:02:12;100918.84;;;21.63;46.42
24422;BME280;12600;53.326;-6.298;2022-10-13T13:04:48;100905.53;;;21.79;46.04
24422;BME280;12600;53.326;-6.298;2022-10-13T13:07:30;100900.28;;;22.45;45.72
24422;BME280;12600;53.326;-6.298;2022-10-13T13:12:42;100911.44;;;22.89;43.39
24422;BME280;12600;53.326;-6.298;2022-10-13T13:15:32;100911.22;;;23.16;43.29
24422;BME280;12600;53.326;-6.298;2022-10-13T13:18:32;100889.13;;;23.52;42.36
24422;BME280;12600;53.326;-6.298;2022-10-13T13:21:09;100874.94;;;23.85;41.60
24422;BME280;12600;53.326;-6.298;2022-10-13T13:23:42;100871.38;;;24.03;41.46
24422;BME280;12600;53.326;-6.298;2022-10-13T13:26:22;100893.72;;;24.10;40.73
24422;BME280;12600;53.326;-6.298;2022-10-13T13:28:53;100869.03;;;24.26;40.73